sensor_id;sensor_type;location;lat;lon;timestamp;P1;durP1;ratioP1;P2;durP2;ratioP2
12042;SDS011;6082;49.306;12.862;2023-12-14T00:01:44;10.23;;;6.57;;
12042;SDS011;6082;49.306;12.862;2023-12-14T00:04:11;12.07;;;7.17;;
12042;SDS011;6082;49.306;12.862;2023-12-14T00:06:37;12.37;;;7.07;;
12042;SDS011;6082;49.306;12.862;2023-12-14T00:09:02;13.67;;;7.20;;
12042;SDS011;6082;49.306;12.862;2023-12-14T00:11:28;12.77;;;7.60;;
12042;SDS011;6082;49.306;12.862;2023-12-14T00:13:54;13.47;;;7.00;;
12042;SDS011;6082;49.306;12.862;2023-12-14T00:16:20;13.00;;;6.80;;
12042;SDS011;6082;49.306;12.862;2023-12-14T00:18:46;11.67;;;7.50;;
12042;SDS011;6082;49.306;12.862;2023-12-14T00:21:12;13.87;;;7.73;;
12042;SDS011;6082;49.306;12.862;2023-12-14T00:23:37;14.37;;;7.50;;
12042;SDS011;6082;49.306;12.862;2023-12-14T00:26:03;12.43;;;7.40;;
12042;SDS011;6082;49.306;12.862;2023-12-14T00:28:29;11.43;;;7.20;;
12042;SDS011;6082;49.306;12.862;2023-12-14T00:30:55;14.30;;;7.37;;
12042;SDS011;6082;49.306;12.862;2023-12-14T00:33:20;13.80;;;7.37;;
12042;SDS011;6082;49.306;12.862;2023-12-14T00:35:46;12.90;;;6.97;;
12042;SDS011;6082;49.306;12.862;2023-12-14T00:38:12;12.77;;;7.20;;
12042;SDS011;6082;49.306;12.862;2023-12-14T00:40:37;15.60;;;7.53;;
12042;SDS011;6082;49.306;12.862;2023-12-14T00:43:03;12.70;;;7.23;;
12042;SDS011;6082;49.306;12.862;2023-12-14T00:45:29;12.87;;;7.47;;
12042;SDS011;6082;49.306;12.862;2023-12-14T00:47:54;12.23;;;7.50;;
12042;SDS011;6082;49.306;12.862;2023-12-14T00:50:20;14.17;;;7.07;;
12042;SDS011;6082;49.306;12.862;2023-12-14T00:52:46;15.53;;;7.47;;
12042;SDS011;6082;49.306;12.862;2023-12-14T00:55:11;13.97;;;7.23;;
12042;SDS011;6082;49.306;12.862;2023-12-14T00:57:37;12.33;;;8.37;;
12042;SDS011;6082;49.306;12.862;2023-12-14T01:00:03;16.97;;;8.90;;
12042;SDS011;6082;49.306;12.862;2023-12-14T01:02:29;13.70;;;8.17;;
12042;SDS011;6082;49.306;12.862;2023-12-14T01:04:54;14.33;;;7.60;;
12042;SDS011;6082;49.306;12.862;2023-12-14T01:07:20;15.33;;;9.10;;
12042;SDS011;6082;49.306;12.862;2023-12-14T01:09:46;16.93;;;8.30;;
12042;SDS011;6082;49.306;12.862;2023-12-14T01:12:11;17.97;;;8.60;;
12042;SDS011;6082;49.306;12.862;2023-12-14T01:14:37;15.47;;;8.73;;
12042;SDS011;6082;49.306;12.862;2023-12-14T01:17:03;15.03;;;7.73;;
12042;SDS011;6082;49.306;12.862;2023-12-14T01:19:28;17.43;;;8.23;;
12042;SDS011;6082;49.306;12.862;2023-12-14T01:21:54;13.77;;;7.77;;
12042;SDS011;6082;49.306;12.862;2023-12-14T01:24:20;18.03;;;8.90;;
12042;SDS011;6082;49.306;12.862;2023-12-14T01:26:46;13.43;;;7.23;;
12042;SDS011;6082;49.306;12.862;2023-12-14T01:29:11;16.17;;;8.50;;
12042;SDS011;6082;49.306;12.862;2023-12-14T01:31:37;14.33;;;7.67;;
12042;SDS011;6082;49.306;12.862;2023-12-14T01:34:03;14.43;;;7.57;;
12042;SDS011;6082;49.306;12.862;2023-12-14T01:36:28;15.87;;;8.57;;
12042;SDS011;6082;49.306;12.862;2023-12-14T01:38:54;18.13;;;8.13;;
12042;SDS011;6082;49.306;12.862;2023-12-14T01:41:20;12.57;;;7.23;;
12042;SDS011;6082;49.306;12.862;2023-12-14T01:43:46;16.63;;;8.00;;
12042;SDS011;6082;49.306;12.862;2023-12-14T01:46:11;17.20;;;8.33;;
12042;SDS011;6082;49.306;12.862;2023-12-14T01:48:38;15.03;;;7.63;;
12042;SDS011;6082;49.306;12.862;2023-12-14T01:51:04;13.10;;;7.37;;
12042;SDS011;6082;49.306;12.862;2023-12-14T01:53:30;13.97;;;6.70;;
12042;SDS011;6082;49.306;12.862;2023-12-14T01:55:56;12.23;;;6.77;;
12042;SDS011;6082;49.306;12.862;2023-12-14T01:58:21;13.23;;;6.57;;
12042;SDS011;6082;49.306;12.862;2023-12-14T02:03:45;11.43;;;5.93;;
12042;SDS011;6082;49.306;12.862;2023-12-14T02:06:11;13.30;;;6.57;;
12042;SDS011;6082;49.306;12.862;2023-12-14T02:08:37;12.77;;;6.70;;
12042;SDS011;6082;49.306;12.862;2023-12-14T02:11:03;15.70;;;7.40;;
12042;SDS011;6082;49.306;12.862;2023-12-14T02:13:28;13.27;;;7.17;;
12042;SDS011;6082;49.306;12.862;2023-12-14T02:15:54;12.97;;;6.80;;
12042;SDS011;6082;49.306;12.862;2023-12-14T02:18:20;12.03;;;7.03;;
12042;SDS011;6082;49.306;12.862;2023-12-14T02:20:45;14.33;;;6.00;;
12042;SDS011;6082;49.306;12.862;2023-12-14T02:23:11;14.43;;;7.57;;
12042;SDS011;6082;49.306;12.862;2023-12-14T02:25:37;13.63;;;7.00;;
12042;SDS011;6082;49.306;12.862;2023-12-14T02:28:02;14.27;;;7.33;;
12042;SDS011;6082;49.306;12.862;2023-12-14T02:30:28;13.80;;;7.43;;
12042;SDS011;6082;49.306;12.862;2023-12-14T02:32:54;11.77;;;6.53;;
12042;SDS011;6082;49.306;12.862;2023-12-14T02:35:20;12.03;;;7.27;;
12042;SDS011;6082;49.306;12.862;2023-12-14T02:37:47;11.17;;;6.40;;
12042;SDS011;6082;49.306;12.862;2023-12-14T02:40:13;12.53;;;6.60;;
12042;SDS011;6082;49.306;12.862;2023-12-14T02:42:39;12.23;;;5.57;;
12042;SDS011;6082;49.306;12.862;2023-12-14T02:45:05;8.63;;;5.30;;
12042;SDS011;6082;49.306;12.862;2023-12-14T02:47:32;9.77;;;5.53;;
12042;SDS011;6082;49.306;12.862;2023-12-14T02:49:57;12.73;;;5.67;;
12042;SDS011;6082;49.306;12.862;2023-12-14T02:52:23;9.47;;;5.47;;
12042;SDS011;6082;49.306;12.862;2023-12-14T02:54:49;11.67;;;5.60;;
12042;SDS011;6082;49.306;12.862;2023-12-14T02:57:14;12.43;;;7.20;;
12042;SDS011;6082;49.306;12.862;2023-12-14T02:59:40;14.43;;;6.60;;
12042;SDS011;6082;49.306;12.862;2023-12-14T03:02:06;14.10;;;7.47;;
12042;SDS011;6082;49.306;12.862;2023-12-14T03:04:31;12.87;;;6.50;;
12042;SDS011;6082;49.306;12.862;2023-12-14T03:06:57;11.13;;;5.50;;
12042;SDS011;6082;49.306;12.862;2023-12-14T03:09:27;12.97;;;6.33;;
12042;SDS011;6082;49.306;12.862;2023-12-14T03:11:56;13.63;;;6.90;;
12042;SDS011;6082;49.306;12.862;2023-12-14T03:14:22;11.37;;;6.37;;
12042;SDS011;6082;49.306;12.862;2023-12-14T03:16:48;9.87;;;5.77;;
12042;SDS011;6082;49.306;12.862;2023-12-14T03:19:14;14.03;;;5.67;;
12042;SDS011;6082;49.306;12.862;2023-12-14T03:21:41;11.80;;;5.90;;
12042;SDS011;6082;49.306;12.862;2023-12-14T03:24:07;13.03;;;6.30;;
12042;SDS011;6082;49.306;12.862;2023-12-14T03:26:34;10.13;;;5.27;;
12042;SDS011;6082;49.306;12.862;2023-12-14T03:29:00;9.73;;;5.40;;
12042;SDS011;6082;49.306;12.862;2023-12-14T03:31:25;9.13;;;4.77;;
12042;SDS011;6082;49.306;12.862;2023-12-14T03:33:51;9.73;;;5.50;;
12042;SDS011;6082;49.306;12.862;2023-12-14T03:36:17;8.93;;;5.07;;
12042;SDS011;6082;49.306;12.862;2023-12-14T03:38:42;9.90;;;5.27;;
12042;SDS011;6082;49.306;12.862;2023-12-14T03:41:08;12.60;;;6.37;;
12042;SDS011;6082;49.306;12.862;2023-12-14T03:43:34;11.60;;;5.77;;
12042;SDS011;6082;49.306;12.862;2023-12-14T03:45:59;10.17;;;4.63;;
12042;SDS011;6082;49.306;12.862;2023-12-14T03:48:25;9.30;;;4.87;;
12042;SDS011;6082;49.306;12.862;2023-12-14T03:50:51;9.23;;;5.07;;
12042;SDS011;6082;49.306;12.862;2023-12-14T03:53:16;8.00;;;5.00;;
12042;SDS011;6082;49.306;12.862;2023-12-14T03:55:42;11.23;;;5.37;;
12042;SDS011;6082;49.306;12.862;2023-12-14T03:58:08;9.80;;;4.17;;
12042;SDS011;6082;49.306;12.862;2023-12-14T04:00:34;8.47;;;3.90;;
12042;SDS011;6082;49.306;12.862;2023-12-14T04:02:59;7.37;;;4.40;;
12042;SDS011;6082;49.306;12.862;2023-12-14T04:05:25;8.00;;;4.87;;
12042;SDS011;6082;49.306;12.862;2023-12-14T04:07:51;6.50;;;4.43;;
12042;SDS011;6082;49.306;12.862;2023-12-14T04:10:16;8.93;;;4.70;;
12042;SDS011;6082;49.306;12.862;2023-12-14T04:12:42;7.50;;;4.23;;
12042;SDS011;6082;49.306;12.862;2023-12-14T04:15:09;6.33;;;4.13;;
12042;SDS011;6082;49.306;12.862;2023-12-14T04:17:35;7.43;;;4.60;;
12042;SDS011;6082;49.306;12.862;2023-12-14T04:20:01;9.23;;;4.33;;
12042;SDS011;6082;49.306;12.862;2023-12-14T04:22:31;10.23;;;5.00;;
12042;SDS011;6082;49.306;12.862;2023-12-14T04:24:56;8.67;;;4.67;;
12042;SDS011;6082;49.306;12.862;2023-12-14T04:27:22;8.63;;;4.90;;
12042;SDS011;6082;49.306;12.862;2023-12-14T04:29:52;7.30;;;4.13;;
12042;SDS011;6082;49.306;12.862;2023-12-14T04:32:17;7.67;;;4.27;;
12042;SDS011;6082;49.306;12.862;2023-12-14T04:34:43;7.70;;;4.40;;
12042;SDS011;6082;49.306;12.862;2023-12-14T04:37:09;9.10;;;4.60;;
12042;SDS011;6082;49.306;12.862;2023-12-14T04:39:34;9.33;;;4.07;;
12042;SDS011;6082;49.306;12.862;2023-12-14T04:42:00;8.90;;;4.97;;
12042;SDS011;6082;49.306;12.862;2023-12-14T04:44:26;5.70;;;3.47;;
12042;SDS011;6082;49.306;12.862;2023-12-14T04:46:51;8.33;;;4.20;;
12042;SDS011;6082;49.306;12.862;2023-12-14T04:49:18;6.17;;;4.13;;
12042;SDS011;6082;49.306;12.862;2023-12-14T04:51:44;7.97;;;4.87;;
12042;SDS011;6082;49.306;12.862;2023-12-14T04:54:10;7.87;;;4.60;;
12042;SDS011;6082;49.306;12.862;2023-12-14T04:56:36;8.93;;;4.43;;
12042;SDS011;6082;49.306;12.862;2023-12-14T04:59:01;12.43;;;5.70;;
12042;SDS011;6082;49.306;12.862;2023-12-14T05:01:27;10.43;;;4.87;;
12042;SDS011;6082;49.306;12.862;2023-12-14T05:03:53;8.27;;;4.83;;
12042;SDS011;6082;49.306;12.862;2023-12-14T05:06:19;6.80;;;4.43;;
12042;SDS011;6082;49.306;12.862;2023-12-14T05:08:45;5.20;;;3.37;;
12042;SDS011;6082;49.306;12.862;2023-12-14T05:11:12;7.87;;;4.17;;
12042;SDS011;6082;49.306;12.862;2023-12-14T05:13:38;5.73;;;4.13;;
12042;SDS011;6082;49.306;12.862;2023-12-14T05:16:04;5.57;;;3.57;;
12042;SDS011;6082;49.306;12.862;2023-12-14T05:18:30;6.03;;;3.43;;
12042;SDS011;6082;49.306;12.862;2023-12-14T05:20:55;7.27;;;3.77;;
12042;SDS011;6082;49.306;12.862;2023-12-14T05:23:21;7.40;;;3.80;;
12042;SDS011;6082;49.306;12.862;2023-12-14T05:25:47;5.83;;;3.43;;
12042;SDS011;6082;49.306;12.862;2023-12-14T05:28:12;7.60;;;4.60;;
12042;SDS011;6082;49.306;12.862;2023-12-14T05:30:38;8.20;;;4.53;;
12042;SDS011;6082;49.306;12.862;2023-12-14T05:33:04;5.97;;;4.27;;
12042;SDS011;6082;49.306;12.862;2023-12-14T05:35:29;6.23;;;3.90;;
12042;SDS011;6082;49.306;12.862;2023-12-14T05:37:55;6.10;;;3.57;;
12042;SDS011;6082;49.306;12.862;2023-12-14T05:40:21;6.00;;;3.40;;
12042;SDS011;6082;49.306;12.862;2023-12-14T05:42:47;5.90;;;3.63;;
12042;SDS011;6082;49.306;12.862;2023-12-14T05:45:13;6.37;;;3.83;;
12042;SDS011;6082;49.306;12.862;2023-12-14T05:47:38;6.23;;;3.97;;
12042;SDS011;6082;49.306;12.862;2023-12-14T05:50:06;7.87;;;4.07;;
12042;SDS011;6082;49.306;12.862;2023-12-14T05:52:34;6.33;;;4.10;;
12042;SDS011;6082;49.306;12.862;2023-12-14T05:55:00;8.53;;;4.80;;
12042;SDS011;6082;49.306;12.862;2023-12-14T05:57:26;7.47;;;4.20;;
12042;SDS011;6082;49.306;12.862;2023-12-14T05:59:52;10.10;;;5.50;;
12042;SDS011;6082;49.306;12.862;2023-12-14T06:02:18;9.87;;;5.60;;
12042;SDS011;6082;49.306;12.862;2023-12-14T06:04:44;13.13;;;6.73;;
12042;SDS011;6082;49.306;12.862;2023-12-14T06:07:09;10.43;;;5.33;;
12042;SDS011;6082;49.306;12.862;2023-12-14T06:09:35;10.80;;;5.77;;
12042;SDS011;6082;49.306;12.862;2023-12-14T06:12:01;8.93;;;5.73;;
12042;SDS011;6082;49.306;12.862;2023-12-14T06:14:28;11.43;;;6.03;;
12042;SDS011;6082;49.306;12.862;2023-12-14T06:16:54;11.03;;;6.63;;
12042;SDS011;6082;49.306;12.862;2023-12-14T06:19:20;13.37;;;7.07;;
12042;SDS011;6082;49.306;12.862;2023-12-14T06:21:46;10.30;;;6.37;;
12042;SDS011;6082;49.306;12.862;2023-12-14T06:24:12;10.10;;;5.77;;
12042;SDS011;6082;49.306;12.862;2023-12-14T06:26:42;10.77;;;5.50;;
12042;SDS011;6082;49.306;12.862;2023-12-14T06:29:11;12.57;;;6.10;;
12042;SDS011;6082;49.306;12.862;2023-12-14T06:31:37;9.97;;;5.77;;
12042;SDS011;6082;49.306;12.862;2023-12-14T06:34:04;10.53;;;6.40;;
12042;SDS011;6082;49.306;12.862;2023-12-14T06:36:31;10.43;;;6.53;;
12042;SDS011;6082;49.306;12.862;2023-12-14T06:38:57;10.43;;;6.00;;
12042;SDS011;6082;49.306;12.862;2023-12-14T06:41:24;10.67;;;5.27;;
12042;SDS011;6082;49.306;12.862;2023-12-14T06:43:51;8.90;;;5.70;;
12042;SDS011;6082;49.306;12.862;2023-12-14T06:46:17;10.83;;;6.27;;
12042;SDS011;6082;49.306;12.862;2023-12-14T06:48:44;9.83;;;6.30;;
12042;SDS011;6082;49.306;12.862;2023-12-14T06:51:10;13.03;;;7.07;;
12042;SDS011;6082;49.306;12.862;2023-12-14T06:53:38;13.97;;;7.37;;
12042;SDS011;6082;49.306;12.862;2023-12-14T06:56:05;12.87;;;6.97;;
12042;SDS011;6082;49.306;12.862;2023-12-14T06:58:34;12.10;;;6.37;;
12042;SDS011;6082;49.306;12.862;2023-12-14T07:01:00;12.10;;;6.80;;
12042;SDS011;6082;49.306;12.862;2023-12-14T07:03:26;11.60;;;6.23;;
12042;SDS011;6082;49.306;12.862;2023-12-14T07:05:52;11.73;;;6.77;;
12042;SDS011;6082;49.306;12.862;2023-12-14T07:08:17;12.50;;;6.93;;
12042;SDS011;6082;49.306;12.862;2023-12-14T07:10:43;14.30;;;7.17;;
12042;SDS011;6082;49.306;12.862;2023-12-14T07:13:09;10.50;;;6.43;;
12042;SDS011;6082;49.306;12.862;2023-12-14T07:15:35;13.40;;;6.33;;
12042;SDS011;6082;49.306;12.862;2023-12-14T07:18:01;11.33;;;7.23;;
12042;SDS011;6082;49.306;12.862;2023-12-14T07:20:27;11.30;;;6.23;;
12042;SDS011;6082;49.306;12.862;2023-12-14T07:22:53;10.67;;;6.63;;
12042;SDS011;6082;49.306;12.862;2023-12-14T07:25:18;14.37;;;6.93;;
12042;SDS011;6082;49.306;12.862;2023-12-14T07:27:44;11.10;;;6.37;;
12042;SDS011;6082;49.306;12.862;2023-12-14T07:30:11;10.77;;;6.70;;
12042;SDS011;6082;49.306;12.862;2023-12-14T07:32:38;10.63;;;6.37;;
12042;SDS011;6082;49.306;12.862;2023-12-14T07:35:04;9.97;;;6.20;;
12042;SDS011;6082;49.306;12.862;2023-12-14T07:37:30;14.20;;;7.60;;
12042;SDS011;6082;49.306;12.862;2023-12-14T07:39:56;12.53;;;6.07;;
12042;SDS011;6082;49.306;12.862;2023-12-14T07:42:23;11.77;;;6.83;;
12042;SDS011;6082;49.306;12.862;2023-12-14T07:44:48;11.33;;;5.77;;
12042;SDS011;6082;49.306;12.862;2023-12-14T07:47:14;11.40;;;6.23;;
12042;SDS011;6082;49.306;12.862;2023-12-14T07:49:40;13.40;;;6.93;;
12042;SDS011;6082;49.306;12.862;2023-12-14T07:52:06;13.07;;;6.10;;
12042;SDS011;6082;49.306;12.862;2023-12-14T07:54:32;10.33;;;5.63;;
12042;SDS011;6082;49.306;12.862;2023-12-14T07:56:58;10.03;;;5.70;;
12042;SDS011;6082;49.306;12.862;2023-12-14T07:59:23;10.40;;;6.60;;
12042;SDS011;6082;49.306;12.862;2023-12-14T08:01:49;10.27;;;6.00;;
12042;SDS011;6082;49.306;12.862;2023-12-14T08:04:14;12.47;;;7.23;;
12042;SDS011;6082;49.306;12.862;2023-12-14T08:06:40;10.90;;;5.63;;
12042;SDS011;6082;49.306;12.862;2023-12-14T08:09:06;12.70;;;6.03;;
12042;SDS011;6082;49.306;12.862;2023-12-14T08:11:32;11.17;;;5.53;;
12042;SDS011;6082;49.306;12.862;2023-12-14T08:13:58;9.63;;;5.63;;
12042;SDS011;6082;49.306;12.862;2023-12-14T08:16:24;10.87;;;5.67;;
12042;SDS011;6082;49.306;12.862;2023-12-14T08:18:50;9.27;;;5.87;;
12042;SDS011;6082;49.306;12.862;2023-12-14T08:21:16;7.67;;;5.40;;
12042;SDS011;6082;49.306;12.862;2023-12-14T08:23:43;8.97;;;5.43;;
12042;SDS011;6082;49.306;12.862;2023-12-14T08:26:08;8.97;;;5.37;;
12042;SDS011;6082;49.306;12.862;2023-12-14T08:28:36;8.60;;;4.87;;
12042;SDS011;6082;49.306;12.862;2023-12-14T08:31:02;8.27;;;4.77;;
12042;SDS011;6082;49.306;12.862;2023-12-14T08:33:29;8.80;;;4.90;;
12042;SDS011;6082;49.306;12.862;2023-12-14T08:35:55;10.27;;;5.13;;
12042;SDS011;6082;49.306;12.862;2023-12-14T08:38:21;7.37;;;4.83;;
12042;SDS011;6082;49.306;12.862;2023-12-14T08:40:47;10.90;;;6.03;;
12042;SDS011;6082;49.306;12.862;2023-12-14T08:43:13;8.57;;;5.80;;
12042;SDS011;6082;49.306;12.862;2023-12-14T08:45:39;7.67;;;4.77;;
12042;SDS011;6082;49.306;12.862;2023-12-14T08:48:05;8.97;;;5.47;;
12042;SDS011;6082;49.306;12.862;2023-12-14T08:50:31;9.30;;;5.43;;
12042;SDS011;6082;49.306;12.862;2023-12-14T08:52:57;7.80;;;4.63;;
12042;SDS011;6082;49.306;12.862;2023-12-14T08:55:25;7.47;;;5.10;;
12042;SDS011;6082;49.306;12.862;2023-12-14T08:57:52;10.63;;;5.53;;
12042;SDS011;6082;49.306;12.862;2023-12-14T09:00:18;7.83;;;4.90;;
12042;SDS011;6082;49.306;12.862;2023-12-14T09:02:44;8.10;;;5.00;;
12042;SDS011;6082;49.306;12.862;2023-12-14T09:05:14;8.10;;;4.90;;
12042;SDS011;6082;49.306;12.862;2023-12-14T09:07:41;7.40;;;4.50;;
12042;SDS011;6082;49.306;12.862;2023-12-14T09:10:08;8.57;;;5.33;;
12042;SDS011;6082;49.306;12.862;2023-12-14T09:12:34;7.73;;;4.30;;
12042;SDS011;6082;49.306;12.862;2023-12-14T09:15:00;7.67;;;4.87;;
12042;SDS011;6082;49.306;12.862;2023-12-14T09:17:26;10.50;;;5.10;;
12042;SDS011;6082;49.306;12.862;2023-12-14T09:19:57;13.33;;;6.00;;
12042;SDS011;6082;49.306;12.862;2023-12-14T09:22:24;13.60;;;5.70;;
12042;SDS011;6082;49.306;12.862;2023-12-14T09:24:50;9.33;;;5.87;;
12042;SDS011;6082;49.306;12.862;2023-12-14T09:27:16;9.00;;;5.93;;
12042;SDS011;6082;49.306;12.862;2023-12-14T09:29:42;9.30;;;4.83;;
12042;SDS011;6082;49.306;12.862;2023-12-14T09:32:08;11.47;;;5.00;;
12042;SDS011;6082;49.306;12.862;2023-12-14T09:34:34;6.70;;;4.77;;
12042;SDS011;6082;49.306;12.862;2023-12-14T09:36:59;7.60;;;4.80;;
12042;SDS011;6082;49.306;12.862;2023-12-14T09:39:25;8.73;;;5.10;;
12042;SDS011;6082;49.306;12.862;2023-12-14T09:41:53;9.17;;;5.37;;
12042;SDS011;6082;49.306;12.862;2023-12-14T09:44:30;7.20;;;4.53;;
12042;SDS011;6082;49.306;12.862;2023-12-14T09:46:57;7.83;;;4.93;;
12042;SDS011;6082;49.306;12.862;2023-12-14T09:49:27;10.10;;;4.73;;
12042;SDS011;6082;49.306;12.862;2023-12-14T09:51:58;8.40;;;5.17;;
12042;SDS011;6082;49.306;12.862;2023-12-14T09:54:27;8.83;;;5.27;;
12042;SDS011;6082;49.306;12.862;2023-12-14T09:56:53;7.77;;;4.53;;
12042;SDS011;6082;49.306;12.862;2023-12-14T09:59:19;9.23;;;4.97;;
12042;SDS011;6082;49.306;12.862;2023-12-14T10:01:45;8.17;;;4.80;;
12042;SDS011;6082;49.306;12.862;2023-12-14T10:04:15;7.37;;;4.57;;
12042;SDS011;6082;49.306;12.862;2023-12-14T10:06:42;6.90;;;4.57;;
12042;SDS011;6082;49.306;12.862;2023-12-14T10:09:10;7.37;;;4.30;;
12042;SDS011;6082;49.306;12.862;2023-12-14T10:11:40;6.93;;;4.37;;
12042;SDS011;6082;49.306;12.862;2023-12-14T10:14:19;6.87;;;4.13;;
12042;SDS011;6082;49.306;12.862;2023-12-14T10:16:46;6.60;;;3.90;;
12042;SDS011;6082;49.306;12.862;2023-12-14T10:19:13;7.60;;;4.50;;
12042;SDS011;6082;49.306;12.862;2023-12-14T10:21:38;6.47;;;4.63;;
12042;SDS011;6082;49.306;12.862;2023-12-14T10:24:04;10.17;;;4.87;;
12042;SDS011;6082;49.306;12.862;2023-12-14T10:26:31;8.67;;;5.30;;
12042;SDS011;6082;49.306;12.862;2023-12-14T10:28:57;8.00;;;4.53;;
12042;SDS011;6082;49.306;12.862;2023-12-14T10:31:23;11.87;;;5.43;;
12042;SDS011;6082;49.306;12.862;2023-12-14T10:33:49;8.03;;;4.83;;
12042;SDS011;6082;49.306;12.862;2023-12-14T10:36:18;6.37;;;3.97;;
12042;SDS011;6082;49.306;12.862;2023-12-14T10:38:48;7.73;;;4.10;;
12042;SDS011;6082;49.306;12.862;2023-12-14T10:41:17;7.90;;;4.03;;
12042;SDS011;6082;49.306;12.862;2023-12-14T10:43:43;6.20;;;3.83;;
12042;SDS011;6082;49.306;12.862;2023-12-14T10:46:12;7.63;;;3.83;;
12042;SDS011;6082;49.306;12.862;2023-12-14T10:48:40;7.57;;;4.30;;
12042;SDS011;6082;49.306;12.862;2023-12-14T10:51:07;9.00;;;4.77;;
12042;SDS011;6082;49.306;12.862;2023-12-14T10:53:35;6.80;;;3.90;;
12042;SDS011;6082;49.306;12.862;2023-12-14T10:56:01;7.80;;;5.33;;
12042;SDS011;6082;49.306;12.862;2023-12-14T10:58:45;7.87;;;4.33;;
12042;SDS011;6082;49.306;12.862;2023-12-14T11:01:18;7.10;;;4.33;;
12042;SDS011;6082;49.306;12.862;2023-12-14T11:03:45;8.33;;;5.00;;
12042;SDS011;6082;49.306;12.862;2023-12-14T11:08:53;7.83;;;4.43;;
12042;SDS011;6082;49.306;12.862;2023-12-14T11:11:22;7.83;;;4.77;;
12042;SDS011;6082;49.306;12.862;2023-12-14T11:13:52;10.67;;;6.50;;
12042;SDS011;6082;49.306;12.862;2023-12-14T11:16:37;8.57;;;4.50;;
12042;SDS011;6082;49.306;12.862;2023-12-14T11:24:22;7.80;;;4.47;;
12042;SDS011;6082;49.306;12.862;2023-12-14T11:26:48;6.83;;;4.60;;
12042;SDS011;6082;49.306;12.862;2023-12-14T11:29:15;8.70;;;5.00;;
12042;SDS011;6082;49.306;12.862;2023-12-14T11:31:41;8.17;;;4.43;;
12042;SDS011;6082;49.306;12.862;2023-12-14T11:34:07;9.07;;;4.20;;
12042;SDS011;6082;49.306;12.862;2023-12-14T11:36:33;8.43;;;4.57;;
12042;SDS011;6082;49.306;12.862;2023-12-14T11:38:59;5.77;;;4.27;;
12042;SDS011;6082;49.306;12.862;2023-12-14T11:41:24;5.77;;;3.90;;
12042;SDS011;6082;49.306;12.862;2023-12-14T11:43:51;8.87;;;4.57;;
12042;SDS011;6082;49.306;12.862;2023-12-14T11:46:16;7.57;;;4.87;;
12042;SDS011;6082;49.306;12.862;2023-12-14T11:48:44;6.77;;;4.57;;
12042;SDS011;6082;49.306;12.862;2023-12-14T11:51:11;7.67;;;4.07;;
12042;SDS011;6082;49.306;12.862;2023-12-14T11:53:37;7.27;;;3.73;;
12042;SDS011;6082;49.306;12.862;2023-12-14T11:56:07;11.27;;;5.50;;
12042;SDS011;6082;49.306;12.862;2023-12-14T11:58:34;7.83;;;5.60;;
12042;SDS011;6082;49.306;12.862;2023-12-14T12:01:16;7.47;;;4.50;;
12042;SDS011;6082;49.306;12.862;2023-12-14T12:03:43;10.33;;;5.10;;
12042;SDS011;6082;49.306;12.862;2023-12-14T12:06:19;7.77;;;4.70;;
12042;SDS011;6082;49.306;12.862;2023-12-14T12:08:46;6.60;;;3.70;;
12042;SDS011;6082;49.306;12.862;2023-12-14T12:11:16;8.80;;;4.83;;
12042;SDS011;6082;49.306;12.862;2023-12-14T12:13:52;8.67;;;4.73;;
12042;SDS011;6082;49.306;12.862;2023-12-14T12:16:21;8.37;;;4.80;;
12042;SDS011;6082;49.306;12.862;2023-12-14T12:18:47;9.13;;;5.53;;
12042;SDS011;6082;49.306;12.862;2023-12-14T12:21:15;8.30;;;4.50;;
12042;SDS011;6082;49.306;12.862;2023-12-14T12:23:41;7.40;;;4.60;;
12042;SDS011;6082;49.306;12.862;2023-12-14T12:26:08;10.23;;;5.73;;
12042;SDS011;6082;49.306;12.862;2023-12-14T12:28:34;7.63;;;5.03;;
12042;SDS011;6082;49.306;12.862;2023-12-14T12:31:00;6.23;;;4.10;;
12042;SDS011;6082;49.306;12.862;2023-12-14T12:33:26;9.13;;;4.73;;
12042;SDS011;6082;49.306;12.862;2023-12-14T12:35:52;7.47;;;4.83;;
12042;SDS011;6082;49.306;12.862;2023-12-14T12:38:19;9.97;;;5.40;;
12042;SDS011;6082;49.306;12.862;2023-12-14T12:40:44;5.70;;;3.90;;
12042;SDS011;6082;49.306;12.862;2023-12-14T12:43:10;8.73;;;4.40;;
12042;SDS011;6082;49.306;12.862;2023-12-14T12:45:37;6.50;;;4.00;;
12042;SDS011;6082;49.306;12.862;2023-12-14T12:48:03;7.40;;;4.50;;
12042;SDS011;6082;49.306;12.862;2023-12-14T12:50:31;7.93;;;4.00;;
12042;SDS011;6082;49.306;12.862;2023-12-14T12:52:56;6.37;;;4.60;;
12042;SDS011;6082;49.306;12.862;2023-12-14T12:55:22;6.97;;;3.87;;
12042;SDS011;6082;49.306;12.862;2023-12-14T12:57:48;5.63;;;3.73;;
12042;SDS011;6082;49.306;12.862;2023-12-14T13:00:14;6.50;;;4.33;;
12042;SDS011;6082;49.306;12.862;2023-12-14T13:02:41;7.00;;;3.60;;
12042;SDS011;6082;49.306;12.862;2023-12-14T13:05:08;5.00;;;3.23;;
12042;SDS011;6082;49.306;12.862;2023-12-14T13:07:35;6.37;;;4.00;;
12042;SDS011;6082;49.306;12.862;2023-12-14T13:10:02;6.60;;;3.73;;
12042;SDS011;6082;49.306;12.862;2023-12-14T13:12:31;5.90;;;3.50;;
12042;SDS011;6082;49.306;12.862;2023-12-14T13:14:58;5.83;;;3.33;;
12042;SDS011;6082;49.306;12.862;2023-12-14T13:17:24;4.20;;;3.13;;
12042;SDS011;6082;49.306;12.862;2023-12-14T13:19:51;6.27;;;3.40;;
12042;SDS011;6082;49.306;12.862;2023-12-14T13:22:16;7.93;;;4.47;;
12042;SDS011;6082;49.306;12.862;2023-12-14T13:24:42;6.97;;;4.10;;
12042;SDS011;6082;49.306;12.862;2023-12-14T13:27:08;5.13;;;3.80;;
12042;SDS011;6082;49.306;12.862;2023-12-14T13:29:34;5.67;;;3.67;;
12042;SDS011;6082;49.306;12.862;2023-12-14T13:32:00;6.97;;;3.90;;
12042;SDS011;6082;49.306;12.862;2023-12-14T13:34:26;9.50;;;4.13;;
12042;SDS011;6082;49.306;12.862;2023-12-14T13:36:55;5.60;;;3.70;;
12042;SDS011;6082;49.306;12.862;2023-12-14T13:39:22;5.10;;;3.30;;
12042;SDS011;6082;49.306;12.862;2023-12-14T13:41:48;5.83;;;3.73;;
12042;SDS011;6082;49.306;12.862;2023-12-14T13:44:14;14.17;;;7.00;;
12042;SDS011;6082;49.306;12.862;2023-12-14T13:46:40;6.43;;;4.03;;
12042;SDS011;6082;49.306;12.862;2023-12-14T13:49:05;6.37;;;3.80;;
12042;SDS011;6082;49.306;12.862;2023-12-14T13:51:31;6.00;;;4.00;;
12042;SDS011;6082;49.306;12.862;2023-12-14T13:53:57;7.03;;;4.37;;
12042;SDS011;6082;49.306;12.862;2023-12-14T13:56:23;7.40;;;4.37;;
12042;SDS011;6082;49.306;12.862;2023-12-14T13:58:48;8.23;;;4.70;;
12042;SDS011;6082;49.306;12.862;2023-12-14T14:01:14;8.47;;;4.90;;
12042;SDS011;6082;49.306;12.862;2023-12-14T14:03:44;5.83;;;4.37;;
12042;SDS011;6082;49.306;12.862;2023-12-14T14:06:12;8.20;;;5.07;;
12042;SDS011;6082;49.306;12.862;2023-12-14T14:08:38;6.37;;;4.47;;
12042;SDS011;6082;49.306;12.862;2023-12-14T14:11:04;10.90;;;5.43;;
12042;SDS011;6082;49.306;12.862;2023-12-14T14:13:31;10.10;;;5.73;;
12042;SDS011;6082;49.306;12.862;2023-12-14T14:15:58;10.03;;;5.90;;
12042;SDS011;6082;49.306;12.862;2023-12-14T14:18:23;10.23;;;6.07;;
12042;SDS011;6082;49.306;12.862;2023-12-14T14:20:49;7.70;;;5.03;;
12042;SDS011;6082;49.306;12.862;2023-12-14T14:23:15;8.00;;;6.27;;
12042;SDS011;6082;49.306;12.862;2023-12-14T14:25:41;10.23;;;5.57;;
12042;SDS011;6082;49.306;12.862;2023-12-14T14:28:06;8.93;;;5.87;;
12042;SDS011;6082;49.306;12.862;2023-12-14T14:30:33;8.13;;;5.50;;
12042;SDS011;6082;49.306;12.862;2023-12-14T14:32:58;7.27;;;4.70;;
12042;SDS011;6082;49.306;12.862;2023-12-14T14:35:24;10.33;;;5.97;;
12042;SDS011;6082;49.306;12.862;2023-12-14T14:37:50;13.47;;;8.37;;
12042;SDS011;6082;49.306;12.862;2023-12-14T14:40:15;11.47;;;7.20;;
12042;SDS011;6082;49.306;12.862;2023-12-14T14:42:41;5.80;;;4.50;;
12042;SDS011;6082;49.306;12.862;2023-12-14T14:45:08;6.30;;;3.90;;
12042;SDS011;6082;49.306;12.862;2023-12-14T14:47:35;6.53;;;4.80;;